Hlavní strana
METAR-TAF:

METAR-TAF

Letiště :

Washington, Virginie, Spojené státy americké

Washington Dulles International Airport

zeměpisná šířka: 38-56-05N, zeměpisná délka: 077-26-51W, výška: 95 m

Aktuální stav počasí

Zpráva byla vytvořena před 28 minutami, v 17:52 UTC
Jižní vítr 5 kt
Teplota 16°C
Vlhkost vzduchu 48%
Tlak 1021 hPa
Viditelnost: 16.1 km
Polojasno ve výšce 5000 ft
Polojasno ve výšce 7500 ft
Oblačno až skoro zataženo ve výšce 25000 ft

METAR: KIAD 211752Z 19005KT 10SM SCT050 SCT075 BKN250 16/05 A3015 RMK AO2 SLP210 T01560050 10156 20000 58021

Čas: 13:20 (18:20 UTC)

Předpověď počasí

Zpráva byla vytvořena před 50 minutami, v 17:30 UTC
Předpověď platná od 21 v 18 UTC do 22 v 24 UTC
Jižní vítr 6 kt
Viditelnost: 10 km
Oblačno až skoro zataženo ve výšce 5000 ft
Od 22 v 1700 UTC
Jižní vítr 9 kt
Viditelnost: 10 km
Oblačno až skoro zataženo ve výšce 20000 ft

TAF: KIAD 211730Z 2118/2224 18006KT P6SM BKN050 FM221700 19009KT P6SM BKN200

Stav a předpovědi počasí z více než 4 000 letišť (zprávy METAR a TAF).

Červené a žluté tečky na mapě představují dostupné meteorologické stanice.

Když kurzor umístíte na tečku, zobrazí se název stanice.

Pak kliknutím zobrazíte stav a předpověď počasí.

Chcete-li změnit mapu, kliknutím na zelené tlačítko se znaménkem +mapu přiblížíte, kliknutím na zelené tlačítko se znaménkem – mapu oddálíte a kliknutím na zelené šipky přejdete na sousední mapy.


METAR-TAF: